Westview Chinook — VG3278 — position and weather

sailwx.info

Track history (hours):
 
Tides and Currents Weather Stations Pressure Air Temp Water Temp Dewpoint Dewpoint Depression Visibility Wind Speed Wind Dir Waves Ship Positions

Westview Chinook

Last reported at 2015-May-29 11:10 UTC. Time now 2015-May-29 12:26 UTC.
Position N 49°14' W 122°46'.

Length 16 m; draft 3.5 m.

Type: Towing. MMSI: 316005622.

Date/timePositionNaut miles runAvg speedWind from/ knotsBaromVisibWave heightAir tempDewpointWater temp
2015-May-29 11:10N 49°14' W 122°46'0 0.0
2015-May-29 10:24N 49°14' W 122°46'0 0.0
2015-May-29 09:16N 49°14' W 122°46'0 0.0
2015-May-29 08:34N 49°14' W 122°46'0 0.0
2015-May-29 07:34N 49°14' W 122°46'0 0.0
2015-May-29 06:33N 49°14' W 122°46'0 0.0
2015-May-29 05:33N 49°14' W 122°46'0 0.0
2015-May-29 04:33N 49°14' W 122°46'0 0.0
2015-May-29 03:33N 49°14' W 122°46'0 0.0
2015-May-29 02:33N 49°14' W 122°46'0 0.0
2015-May-29 01:33N 49°14' W 122°46'0 0.0
2015-May-29 00:32N 49°14' W 122°46'0 0.0
2015-May-28 23:34N 49°14' W 122°46'0 0.0
2015-May-28 22:28N 49°14' W 122°46'1 0.9
2015-May-28 21:33N 49°14' W 122°47'6 6.0
2015-May-28 20:33N 49°12' W 122°56'1 0.7
2015-May-28 19:34N 49°11' W 122°55'0 0.3
2015-May-28 18:33N 49°11' W 122°55'0 0.0
2015-May-28 17:34N 49°11' W 122°55'1 1.4
2015-May-28 16:33N 49°12' W 122°54'8 8.3
2015-May-28 15:34N 49°11' W 122°41'4 3.8
2015-May-28 14:33N 49°13' W 122°47'5 5.2
2015-May-28 13:34N 49°12' W 122°54'4 4.1
2015-May-28 12:33N 49°12' W 123°01'2 2.4
2015-May-28 11:33N 49°12' W 123°04'0 0.0
2015-May-28 10:34N 49°12' W 123°04'4 3.8
2015-May-28 09:33N 49°11' W 122°59'6 5.7
2015-May-28 08:33N 49°13' W 122°51'8 7.8
2015-May-28 07:33N 49°12' W 122°39'3 3.0
2015-May-28 06:34N 49°12' W 122°44'6 6.1
2015-May-28 05:33N 49°13' W 122°53'5 5.2
2015-May-28 04:33N 49°10' W 122°58'3 2.7
2015-May-28 03:33N 49°11' W 122°55'8 7.6
2015-May-28 02:33N 49°12' W 122°44'0 0.1
2015-May-28 01:33N 49°12' W 122°44'2 0.7
2015-May-27 22:20N 49°14' W 122°46'5 6.7
2015-May-27 21:33N 49°13' W 122°54'1 0.8
2015-May-27 20:34N 49°12' W 122°55'1 0.8
2015-May-27 19:33N 49°11' W 122°55'2 1.7
2015-May-27 18:33N 49°11' W 122°58'0 0.0
2015-May-27 17:33N 49°11' W 122°58'0 0.0
2015-May-27 16:33N 49°11' W 122°58'0 0.2
2015-May-27 15:33N 49°11' W 122°58'6 5.8
2015-May-27 14:33N 49°12' W 123°07'0 0.2
2015-May-27 13:33N 49°12' W 123°07'0 0.3
2015-May-27 12:34N 49°12' W 123°07'4 4.1
2015-May-27 11:34N 49°14' W 123°13'3 3.1
2015-May-27 10:34N 49°15' W 123°17'6 6.3
2015-May-27 09:34N 49°12' W 123°09'9 8.5
2015-May-27 08:33N 49°12' W 122°56'3 3.1
2015-May-27 07:34N 49°09' W 122°59'5 5.0
2015-May-27 06:34N 49°07' W 123°05'7 6.8
2015-May-27 05:33N 49°10' W 122°56'4 4.2
2015-May-27 04:34N 49°13' W 122°52'5 5.3
2015-May-27 03:33N 49°09' W 122°58'6 5.8
2015-May-27 02:33N 49°13' W 122°51'4 4.5
2015-May-27 01:34N 49°13' W 122°44'7 5.5
2015-May-27 00:15N 49°12' W 122°55'4 6.2
2015-May-26 23:33N 49°12' W 123°02'7 7.0
2015-May-26 22:34N 49°13' W 123°12'9 8.5
2015-May-26 21:34N 49°16' W 123°24'1010.0
2015-May-26 20:33N 49°14' W 123°40'9 9.0
2015-May-26 19:32N 49°11' W 123°53'1 0.6
2015-May-26 18:34N 49°12' W 123°53'7 7.3
2015-May-26 17:34N 49°12' W 123°42'8 7.7
2015-May-26 16:33N 49°09' W 123°31'8 8.2
2015-May-26 15:34N 49°06' W 123°19'10 9.6
2015-May-26 14:34N 49°07' W 123°05'9 9.0
2015-May-26 13:33N 49°13' W 122°53'5 1.1
2015-May-26 09:18N 49°14' W 122°46'5 7.1
2015-May-26 08:32N 49°12' W 122°54'1 1.1
2015-May-26 07:33N 49°12' W 122°56'6 6.2
2015-May-26 06:33N 49°13' W 122°46'1 0.6
2015-May-26 05:34N 49°13' W 122°45'6 5.6
2015-May-26 04:33N 49°12' W 122°54'3 3.0
2015-May-26 03:34N 49°11' W 122°58'0 0.3
2015-May-26 02:34N 49°11' W 122°58'8 7.5
2015-May-26 01:34N 49°13' W 122°47'3 2.8
2015-May-26 00:33N 49°11' W 122°44'1 1.2
2015-May-25 23:34N 49°13' W 122°44'2 2.2
2015-May-25 22:27N 49°11' W 122°41'3 3.4
2015-May-25 21:34N 49°13' W 122°45'1 1.3
2015-May-25 20:33N 49°14' W 122°45'3 3.2
2015-May-25 19:34N 49°13' W 122°50'3 2.5
2015-May-25 18:31N 49°14' W 122°46'2 1.7
2015-May-25 17:33N 49°15' W 122°44'1 0.3
2015-May-25 13:06N 49°14' W 122°46'3 0.4
2015-May-25 05:33N 49°13' W 122°51'7 7.0
2015-May-25 04:33N 49°09' W 122°60'3 2.9
2015-May-25 03:33N 49°08' W 123°03'4 4.4
2015-May-25 02:33N 49°07' W 123°10'4 4.1
2015-May-25 01:33N 49°07' W 123°16'4 4.2
2015-May-25 00:33N 49°06' W 123°23'6 6.0
2015-May-24 23:33N 49°09' W 123°31'6 6.4
2015-May-24 22:33N 49°11' W 123°40'6 6.5
2015-May-24 21:33N 49°13' W 123°50'4 4.3
2015-May-24 20:33N 49°09' W 123°53'1 0.5
2015-May-24 19:33N 49°09' W 123°52'6 5.8
2015-May-24 18:33N 49°14' W 123°47'7 7.5
2015-May-24 17:33N 49°16' W 123°36'7 6.7
2015-May-24 16:33N 49°17' W 123°26'13 5.8
2015-May-24 14:20N 49°19' W 123°06'0 0.4
2015-May-24 13:24N 49°19' W 123°05'3 0.3
2015-May-24 06:11N 49°18' W 123°02'0 0.0
2015-May-24 05:33N 49°18' W 123°02'0 0.0
2015-May-24 04:28N 49°18' W 123°02'0 0.0
2015-May-24 03:33N 49°18' W 123°02'0 0.0
2015-May-24 02:33N 49°18' W 123°02'0 0.0
2015-May-24 01:33N 49°18' W 123°02'0 0.0
2015-May-24 00:33N 49°18' W 123°02'0 0.0
2015-May-23 23:33N 49°18' W 123°02'0 0.0
2015-May-23 22:33N 49°18' W 123°02'0 0.0
2015-May-23 21:33N 49°18' W 123°02'0 0.0
2015-May-23 20:33N 49°18' W 123°02'0 0.0
2015-May-23 19:33N 49°18' W 123°02'0 0.0
2015-May-23 18:33N 49°18' W 123°02'0 0.0
2015-May-23 17:33N 49°18' W 123°02'0 0.0
2015-May-23 16:33N 49°18' W 123°02'0 0.0
2015-May-23 15:34N 49°18' W 123°02'0 0.0
2015-May-23 14:33N 49°18' W 123°02'0 0.0
2015-May-23 13:33N 49°18' W 123°02'0 0.0
2015-May-23 12:33N 49°18' W 123°02'0 0.0
2015-May-23 11:33N 49°18' W 123°02'0 0.0
2015-May-23 10:33N 49°18' W 123°02'1 0.7
2015-May-23 09:33N 49°18' W 123°03'9 9.0
2015-May-23 08:33N 49°17' W 123°17'9 9.0
2015-May-23 07:33N 49°12' W 123°05'7 6.8
2015-May-23 06:33N 49°11' W 122°55'1 0.8
2015-May-23 05:33N 49°12' W 122°55'8 7.8
2015-May-23 04:33N 49°15' W 122°44'5 5.0
2015-May-23 03:33N 49°13' W 122°51'4 3.6
2015-May-23 02:31N 49°14' W 122°46'1 1.3
2015-May-23 01:29N 49°13' W 122°44'3 3.0
2015-May-23 00:31N 49°11' W 122°41'4 4.4
2015-May-22 23:34N 49°13' W 122°47'5 4.8
2015-May-22 22:32N 49°12' W 122°54'4 3.8
2015-May-22 21:33N 49°10' W 122°58'0 0.4
2015-May-22 20:33N 49°09' W 122°57'7 7.0
2015-May-22 19:34N 49°13' W 122°48'5 4.0
2015-May-22 18:19N 49°11' W 122°41'0 0.6
2015-May-22 17:33N 49°11' W 122°41'3 3.3
2015-May-22 16:34N 49°13' W 122°45'5 5.3
2015-May-22 15:33N 49°13' W 122°53'2 1.9
2015-May-22 14:33N 49°11' W 122°55'5 5.0
2015-May-22 13:34N 49°09' W 123°02'5 5.3
2015-May-22 12:33N 49°07' W 123°09'4 4.4
2015-May-22 11:34N 49°07' W 123°16'3 2.9
2015-May-22 10:33N 49°07' W 123°20'1110.7
2015-May-22 09:34N 49°08' W 123°04'6 6.3
2015-May-22 08:33N 49°11' W 122°55'7 7.0
2015-May-22 07:33N 49°13' W 122°45'3 3.1
2015-May-22 06:32N 49°11' W 122°41'4 3.9
2015-May-22 05:33N 49°13' W 122°47'8 7.8
2015-May-22 04:33N 49°11' W 122°58'4 4.1
2015-May-22 03:33N 49°12' W 123°04'7 6.9
2015-May-22 02:33N 49°13' W 122°54'4 4.1
2015-May-22 01:33N 49°09' W 122°57'6 5.8
2015-May-22 00:33N 49°13' W 122°50'1 1.5
2015-May-21 23:33N 49°13' W 122°52'5 4.7
2015-May-21 22:33N 49°10' W 122°57'2 2.4
2015-May-21 21:33N 49°12' W 122°55'3 3.0
2015-May-21 20:33N 49°13' W 122°51'3 3.3
2015-May-21 19:32N 49°14' W 122°46'0 0.0
2015-May-21 18:33N 49°14' W 122°46'0 0.0
2015-May-21 17:33N 49°14' W 122°46'0 0.0
2015-May-21 16:33N 49°14' W 122°46'0 0.0
2015-May-21 15:33N 49°14' W 122°46'0 0.0
2015-May-21 14:33N 49°14' W 122°46'0 0.0
2015-May-21 13:34N 49°14' W 122°46'0 0.0
2015-May-21 12:33N 49°14' W 122°46'4 4.2
2015-May-21 11:33N 49°13' W 122°52'3 3.4
2015-May-21 10:33N 49°11' W 122°55'5 4.8
2015-May-21 09:33N 49°09' W 123°02'3 3.2
2015-May-21 08:33N 49°09' W 122°57'6 5.6
2015-May-21 07:33N 49°13' W 122°51'7 7.0
2015-May-21 06:33N 49°12' W 122°40'4 4.4
2015-May-21 05:33N 49°14' W 122°46'0 0.0
2015-May-21 04:33N 49°14' W 122°46'0 0.0
2015-May-21 03:33N 49°14' W 122°46'6 6.1
2015-May-21 02:33N 49°12' W 122°55'1 0.7
2015-May-21 01:33N 49°11' W 122°55'7 6.6
2015-May-21 00:33N 49°14' W 122°46'0 0.0
2015-May-20 23:33N 49°14' W 122°46'1 1.1
2015-May-20 22:32N 49°14' W 122°47'4 4.3
2015-May-20 21:33N 49°13' W 122°54'3 2.6
2015-May-20 20:33N 49°10' W 122°55'1 0.9
2015-May-20 19:33N 49°11' W 122°55'7 7.2
2015-May-20 18:33N 49°13' W 122°44'0 0.3
2015-May-20 17:33N 49°13' W 122°44'1 0.6
2015-May-20 16:33N 49°12' W 122°44'5 5.2
2015-May-20 15:33N 49°13' W 122°51'3 2.8
2015-May-20 14:33N 49°11' W 122°55'6 5.6
2015-May-20 13:33N 49°12' W 123°03'1 1.1
2015-May-20 12:34N 49°12' W 123°02'4 3.9
2015-May-20 11:34N 49°09' W 122°57'6 6.4
2015-May-20 10:33N 49°07' W 123°06'7 6.6
2015-May-20 09:34N 49°10' W 122°57'3 2.6
2015-May-20 08:33N 49°12' W 122°54'0 0.0
2015-May-20 07:33N 49°12' W 122°54'0 0.0
2015-May-20 06:33N 49°12' W 122°54'3 2.7
2015-May-20 05:33N 49°10' W 122°57'0 0.0
2015-May-20 04:33N 49°10' W 122°57'0 0.0
2015-May-20 03:33N 49°10' W 122°57'0 0.0
2015-May-20 02:33N 49°10' W 122°57'0 0.1
2015-May-20 01:34N 49°09' W 122°57'2 2.4
2015-May-20 00:33N 49°11' W 122°55'8 7.5
2015-May-19 23:33N 49°12' W 122°43'2 1.7
2015-May-19 22:34N 49°11' W 122°41'1 1.4
2015-May-19 21:33N 49°11' W 122°43'5 2.5
2015-May-19 19:34N 49°13' W 122°50'2 1.9
2015-May-19 18:34N 49°13' W 122°53'4 3.9
2015-May-19 17:34N 49°10' W 122°56'1 1.0
2015-May-19 16:25N 49°10' W 122°58'4 4.8
2015-May-19 15:33N 49°13' W 122°54'8 7.6
2015-May-19 14:33N 49°11' W 122°42'3 2.6
2015-May-19 13:33N 49°13' W 122°45'  
Track history (hours):
 
Tides and Currents Weather Stations Pressure Air Temp Water Temp Dewpoint Dewpoint Depression Visibility Wind Speed Wind Dir Waves Ship Positions

Westview Chinook

Last reported at 2015-May-29 11:10 UTC. Time now 2015-May-29 12:26 UTC.
Position N 49°14' W 122°46'.

Length 16 m; draft 3.5 m.

Type: Towing. MMSI: 316005622.

Date/timePositionNaut miles runAvg speedWind from/ knotsBaromVisibWave heightAir tempDewpointWater temp
2015-May-29 11:10N 49°14' W 122°46'0 0.0
2015-May-29 10:24N 49°14' W 122°46'0 0.0
2015-May-29 09:16N 49°14' W 122°46'0 0.0
2015-May-29 08:34N 49°14' W 122°46'0 0.0
2015-May-29 07:34N 49°14' W 122°46'0 0.0
2015-May-29 06:33N 49°14' W 122°46'0 0.0
2015-May-29 05:33N 49°14' W 122°46'0 0.0
2015-May-29 04:33N 49°14' W 122°46'0 0.0
2015-May-29 03:33N 49°14' W 122°46'0 0.0
2015-May-29 02:33N 49°14' W 122°46'0 0.0
2015-May-29 01:33N 49°14' W 122°46'0 0.0
2015-May-29 00:32N 49°14' W 122°46'0 0.0
2015-May-28 23:34N 49°14' W 122°46'0 0.0
2015-May-28 22:28N 49°14' W 122°46'1 0.9
2015-May-28 21:33N 49°14' W 122°47'6 6.0
2015-May-28 20:33N 49°12' W 122°56'1 0.7
2015-May-28 19:34N 49°11' W 122°55'0 0.3
2015-May-28 18:33N 49°11' W 122°55'0 0.0
2015-May-28 17:34N 49°11' W 122°55'1 1.4
2015-May-28 16:33N 49°12' W 122°54'8 8.3
2015-May-28 15:34N 49°11' W 122°41'4 3.8
2015-May-28 14:33N 49°13' W 122°47'5 5.2
2015-May-28 13:34N 49°12' W 122°54'4 4.1
2015-May-28 12:33N 49°12' W 123°01'2 2.4
2015-May-28 11:33N 49°12' W 123°04'0 0.0
2015-May-28 10:34N 49°12' W 123°04'4 3.8
2015-May-28 09:33N 49°11' W 122°59'6 5.7
2015-May-28 08:33N 49°13' W 122°51'8 7.8
2015-May-28 07:33N 49°12' W 122°39'3 3.0
2015-May-28 06:34N 49°12' W 122°44'6 6.1
2015-May-28 05:33N 49°13' W 122°53'5 5.2
2015-May-28 04:33N 49°10' W 122°58'3 2.7
2015-May-28 03:33N 49°11' W 122°55'8 7.6
2015-May-28 02:33N 49°12' W 122°44'0 0.1
2015-May-28 01:33N 49°12' W 122°44'2 0.7
2015-May-27 22:20N 49°14' W 122°46'5 6.7
2015-May-27 21:33N 49°13' W 122°54'1 0.8
2015-May-27 20:34N 49°12' W 122°55'1 0.8
2015-May-27 19:33N 49°11' W 122°55'2 1.7
2015-May-27 18:33N 49°11' W 122°58'0 0.0
2015-May-27 17:33N 49°11' W 122°58'0 0.0
2015-May-27 16:33N 49°11' W 122°58'0 0.2
2015-May-27 15:33N 49°11' W 122°58'6 5.8
2015-May-27 14:33N 49°12' W 123°07'0 0.2
2015-May-27 13:33N 49°12' W 123°07'0 0.3
2015-May-27 12:34N 49°12' W 123°07'4 4.1
2015-May-27 11:34N 49°14' W 123°13'3 3.1
2015-May-27 10:34N 49°15' W 123°17'6 6.3
2015-May-27 09:34N 49°12' W 123°09'9 8.5
2015-May-27 08:33N 49°12' W 122°56'3 3.1
2015-May-27 07:34N 49°09' W 122°59'5 5.0
2015-May-27 06:34N 49°07' W 123°05'7 6.8
2015-May-27 05:33N 49°10' W 122°56'4 4.2
2015-May-27 04:34N 49°13' W 122°52'5 5.3
2015-May-27 03:33N 49°09' W 122°58'6 5.8
2015-May-27 02:33N 49°13' W 122°51'4 4.5
2015-May-27 01:34N 49°13' W 122°44'7 5.5
2015-May-27 00:15N 49°12' W 122°55'4 6.2
2015-May-26 23:33N 49°12' W 123°02'7 7.0
2015-May-26 22:34N 49°13' W 123°12'9 8.5
2015-May-26 21:34N 49°16' W 123°24'1010.0
2015-May-26 20:33N 49°14' W 123°40'9 9.0
2015-May-26 19:32N 49°11' W 123°53'1 0.6
2015-May-26 18:34N 49°12' W 123°53'7 7.3
2015-May-26 17:34N 49°12' W 123°42'8 7.7
2015-May-26 16:33N 49°09' W 123°31'8 8.2
2015-May-26 15:34N 49°06' W 123°19'10 9.6
2015-May-26 14:34N 49°07' W 123°05'9 9.0
2015-May-26 13:33N 49°13' W 122°53'5 1.1
2015-May-26 09:18N 49°14' W 122°46'5 7.1
2015-May-26 08:32N 49°12' W 122°54'1 1.1
2015-May-26 07:33N 49°12' W 122°56'6 6.2
2015-May-26 06:33N 49°13' W 122°46'1 0.6
2015-May-26 05:34N 49°13' W 122°45'6 5.6
2015-May-26 04:33N 49°12' W 122°54'3 3.0
2015-May-26 03:34N 49°11' W 122°58'0 0.3
2015-May-26 02:34N 49°11' W 122°58'8 7.5
2015-May-26 01:34N 49°13' W 122°47'3 2.8
2015-May-26 00:33N 49°11' W 122°44'1 1.2
2015-May-25 23:34N 49°13' W 122°44'2 2.2
2015-May-25 22:27N 49°11' W 122°41'3 3.4
2015-May-25 21:34N 49°13' W 122°45'1 1.3
2015-May-25 20:33N 49°14' W 122°45'3 3.2
2015-May-25 19:34N 49°13' W 122°50'3 2.5
2015-May-25 18:31N 49°14' W 122°46'2 1.7
2015-May-25 17:33N 49°15' W 122°44'1 0.3
2015-May-25 13:06N 49°14' W 122°46'3 0.4
2015-May-25 05:33N 49°13' W 122°51'7 7.0
2015-May-25 04:33N 49°09' W 122°60'3 2.9
2015-May-25 03:33N 49°08' W 123°03'4 4.4
2015-May-25 02:33N 49°07' W 123°10'4 4.1
2015-May-25 01:33N 49°07' W 123°16'4 4.2
2015-May-25 00:33N 49°06' W 123°23'6 6.0
2015-May-24 23:33N 49°09' W 123°31'6 6.4
2015-May-24 22:33N 49°11' W 123°40'6 6.5
2015-May-24 21:33N 49°13' W 123°50'4 4.3
2015-May-24 20:33N 49°09' W 123°53'1 0.5
2015-May-24 19:33N 49°09' W 123°52'6 5.8
2015-May-24 18:33N 49°14' W 123°47'7 7.5
2015-May-24 17:33N 49°16' W 123°36'7 6.7
2015-May-24 16:33N 49°17' W 123°26'13 5.8
2015-May-24 14:20N 49°19' W 123°06'0 0.4
2015-May-24 13:24N 49°19' W 123°05'3 0.3
2015-May-24 06:11N 49°18' W 123°02'0 0.0
2015-May-24 05:33N 49°18' W 123°02'0 0.0
2015-May-24 04:28N 49°18' W 123°02'0 0.0
2015-May-24 03:33N 49°18' W 123°02'0 0.0
2015-May-24 02:33N 49°18' W 123°02'0 0.0
2015-May-24 01:33N 49°18' W 123°02'0 0.0
2015-May-24 00:33N 49°18' W 123°02'0 0.0
2015-May-23 23:33N 49°18' W 123°02'0 0.0
2015-May-23 22:33N 49°18' W 123°02'0 0.0
2015-May-23 21:33N 49°18' W 123°02'0 0.0
2015-May-23 20:33N 49°18' W 123°02'0 0.0
2015-May-23 19:33N 49°18' W 123°02'0 0.0
2015-May-23 18:33N 49°18' W 123°02'0 0.0
2015-May-23 17:33N 49°18' W 123°02'0 0.0
2015-May-23 16:33N 49°18' W 123°02'0 0.0
2015-May-23 15:34N 49°18' W 123°02'0 0.0
2015-May-23 14:33N 49°18' W 123°02'0 0.0
2015-May-23 13:33N 49°18' W 123°02'0 0.0
2015-May-23 12:33N 49°18' W 123°02'0 0.0
2015-May-23 11:33N 49°18' W 123°02'0 0.0
2015-May-23 10:33N 49°18' W 123°02'1 0.7
2015-May-23 09:33N 49°18' W 123°03'9 9.0
2015-May-23 08:33N 49°17' W 123°17'9 9.0
2015-May-23 07:33N 49°12' W 123°05'7 6.8
2015-May-23 06:33N 49°11' W 122°55'1 0.8
2015-May-23 05:33N 49°12' W 122°55'8 7.8
2015-May-23 04:33N 49°15' W 122°44'5 5.0
2015-May-23 03:33N 49°13' W 122°51'4 3.6
2015-May-23 02:31N 49°14' W 122°46'1 1.3
2015-May-23 01:29N 49°13' W 122°44'3 3.0
2015-May-23 00:31N 49°11' W 122°41'4 4.4
2015-May-22 23:34N 49°13' W 122°47'5 4.8
2015-May-22 22:32N 49°12' W 122°54'4 3.8
2015-May-22 21:33N 49°10' W 122°58'0 0.4
2015-May-22 20:33N 49°09' W 122°57'7 7.0
2015-May-22 19:34N 49°13' W 122°48'5 4.0
2015-May-22 18:19N 49°11' W 122°41'0 0.6
2015-May-22 17:33N 49°11' W 122°41'3 3.3
2015-May-22 16:34N 49°13' W 122°45'5 5.3
2015-May-22 15:33N 49°13' W 122°53'2 1.9
2015-May-22 14:33N 49°11' W 122°55'5 5.0
2015-May-22 13:34N 49°09' W 123°02'5 5.3
2015-May-22 12:33N 49°07' W 123°09'4 4.4
2015-May-22 11:34N 49°07' W 123°16'3 2.9
2015-May-22 10:33N 49°07' W 123°20'1110.7
2015-May-22 09:34N 49°08' W 123°04'6 6.3
2015-May-22 08:33N 49°11' W 122°55'7 7.0
2015-May-22 07:33N 49°13' W 122°45'3 3.1
2015-May-22 06:32N 49°11' W 122°41'4 3.9
2015-May-22 05:33N 49°13' W 122°47'8 7.8
2015-May-22 04:33N 49°11' W 122°58'4 4.1
2015-May-22 03:33N 49°12' W 123°04'7 6.9
2015-May-22 02:33N 49°13' W 122°54'4 4.1
2015-May-22 01:33N 49°09' W 122°57'6 5.8
2015-May-22 00:33N 49°13' W 122°50'1 1.5
2015-May-21 23:33N 49°13' W 122°52'5 4.7
2015-May-21 22:33N 49°10' W 122°57'2 2.4
2015-May-21 21:33N 49°12' W 122°55'3 3.0
2015-May-21 20:33N 49°13' W 122°51'3 3.3
2015-May-21 19:32N 49°14' W 122°46'0 0.0
2015-May-21 18:33N 49°14' W 122°46'0 0.0
2015-May-21 17:33N 49°14' W 122°46'0 0.0
2015-May-21 16:33N 49°14' W 122°46'0 0.0
2015-May-21 15:33N 49°14' W 122°46'0 0.0
2015-May-21 14:33N 49°14' W 122°46'0 0.0
2015-May-21 13:34N 49°14' W 122°46'0 0.0
2015-May-21 12:33N 49°14' W 122°46'4 4.2
2015-May-21 11:33N 49°13' W 122°52'3 3.4
2015-May-21 10:33N 49°11' W 122°55'5 4.8
2015-May-21 09:33N 49°09' W 123°02'3 3.2
2015-May-21 08:33N 49°09' W 122°57'6 5.6
2015-May-21 07:33N 49°13' W 122°51'7 7.0
2015-May-21 06:33N 49°12' W 122°40'4 4.4
2015-May-21 05:33N 49°14' W 122°46'0 0.0
2015-May-21 04:33N 49°14' W 122°46'0 0.0
2015-May-21 03:33N 49°14' W 122°46'6 6.1
2015-May-21 02:33N 49°12' W 122°55'1 0.7
2015-May-21 01:33N 49°11' W 122°55'7 6.6
2015-May-21 00:33N 49°14' W 122°46'0 0.0
2015-May-20 23:33N 49°14' W 122°46'1 1.1
2015-May-20 22:32N 49°14' W 122°47'4 4.3
2015-May-20 21:33N 49°13' W 122°54'3 2.6
2015-May-20 20:33N 49°10' W 122°55'1 0.9
2015-May-20 19:33N 49°11' W 122°55'7 7.2
2015-May-20 18:33N 49°13' W 122°44'0 0.3
2015-May-20 17:33N 49°13' W 122°44'1 0.6
2015-May-20 16:33N 49°12' W 122°44'5 5.2
2015-May-20 15:33N 49°13' W 122°51'3 2.8
2015-May-20 14:33N 49°11' W 122°55'6 5.6
2015-May-20 13:33N 49°12' W 123°03'1 1.1
2015-May-20 12:34N 49°12' W 123°02'4 3.9
2015-May-20 11:34N 49°09' W 122°57'6 6.4
2015-May-20 10:33N 49°07' W 123°06'7 6.6
2015-May-20 09:34N 49°10' W 122°57'3 2.6
2015-May-20 08:33N 49°12' W 122°54'0 0.0
2015-May-20 07:33N 49°12' W 122°54'0 0.0
2015-May-20 06:33N 49°12' W 122°54'3 2.7
2015-May-20 05:33N 49°10' W 122°57'0 0.0
2015-May-20 04:33N 49°10' W 122°57'0 0.0
2015-May-20 03:33N 49°10' W 122°57'0 0.0
2015-May-20 02:33N 49°10' W 122°57'0 0.1
2015-May-20 01:34N 49°09' W 122°57'2 2.4
2015-May-20 00:33N 49°11' W 122°55'8 7.5
2015-May-19 23:33N 49°12' W 122°43'2 1.7
2015-May-19 22:34N 49°11' W 122°41'1 1.4
2015-May-19 21:33N 49°11' W 122°43'5 2.5
2015-May-19 19:34N 49°13' W 122°50'2 1.9
2015-May-19 18:34N 49°13' W 122°53'4 3.9
2015-May-19 17:34N 49°10' W 122°56'1 1.0
2015-May-19 16:25N 49°10' W 122°58'4 4.8
2015-May-19 15:33N 49°13' W 122°54'8 7.6
2015-May-19 14:33N 49°11' W 122°42'3 2.6
2015-May-19 13:33N 49°13' W 122°45'  

Dump ship's entire track history